Time;durP1;ratioP1;P1;durP2;ratioP2;P2;SDS_P1;SDS_P2;PMS_P1;PMS_P2;Temp;Humidity;BMP_temperature;BMP_pressure;BME280_temperature;BME280_humidity;BME280_pressure;Samples;Min_cycle;Max_cycle;Signal;HPM_P1;HPM_P2
2021/10/03 00:01:53;;;;;;;13.67;8.67;;;12.00;99.90;;;;;;5104444;28;20413;-74
2021/10/03 00:04:21;;;;;;;15.80;10.13;;;12.00;99.90;;;;;;5109775;28;20227;-74
2021/10/03 00:06:51;;;;;;;14.80;10.37;;;12.00;99.90;;;;;;5107752;27;20751;-73
2021/10/03 00:09:19;;;;;;;21.03;12.87;;;11.90;99.90;;;;;;5113727;27;20751;-73
2021/10/03 00:11:46;;;;;;;19.93;12.37;;;11.90;99.90;;;;;;5113717;27;20678;-74
2021/10/03 00:14:13;;;;;;;17.00;11.03;;;11.80;99.90;;;;;;5112821;27;20675;-74
2021/10/03 00:16:40;;;;;;;15.07;10.17;;;11.80;99.90;;;;;;5109314;28;20212;-74
2021/10/03 00:19:07;;;;;;;15.00;10.20;;;11.80;99.90;;;;;;5109623;28;20206;-74
2021/10/03 00:21:35;;;;;;;14.70;9.77;;;11.80;99.90;;;;;;5109848;28;20213;-75
2021/10/03 00:24:03;;;;;;;12.60;7.93;;;11.80;99.90;;;;;;5108975;28;20272;-74
2021/10/03 00:26:31;;;;;;;12.17;8.00;;;11.80;99.90;;;;;;5109375;28;20248;-74
2021/10/03 00:28:58;;;;;;;12.07;7.80;;;11.80;99.90;;;;;;5108421;28;20293;-74
2021/10/03 00:31:25;;;;;;;12.53;7.77;;;11.80;99.90;;;;;;5107398;28;20210;-74
2021/10/03 00:33:52;;;;;;;13.37;9.03;;;11.80;99.90;;;;;;5110654;28;20193;-74
2021/10/03 00:36:22;;;;;;;10.33;6.60;;;11.80;99.90;;;;;;5110313;28;20195;-74
2021/10/03 00:38:52;;;;;;;9.77;6.50;;;11.80;99.90;;;;;;5109797;28;20204;-74
2021/10/03 00:41:20;;;;;;;7.90;5.87;;;11.80;99.90;;;;;;5109227;27;20564;-74
2021/10/03 00:43:48;;;;;;;9.30;6.60;;;11.80;99.90;;;;;;5109129;28;20221;-73
2021/10/03 00:46:15;;;;;;;9.07;6.23;;;11.80;99.90;;;;;;5109510;27;20211;-74
2021/10/03 00:48:42;;;;;;;8.57;5.97;;;11.80;99.90;;;;;;5111835;27;20200;-74
2021/10/03 00:51:09;;;;;;;7.90;5.83;;;11.80;99.90;;;;;;5112436;27;20611;-74
2021/10/03 00:53:36;;;;;;;6.93;5.70;;;11.70;99.90;;;;;;5107882;27;20187;-74
2021/10/03 00:56:04;;;;;;;10.00;6.70;;;11.70;99.90;;;;;;5095708;28;20265;-74
2021/10/03 00:58:32;;;;;;;9.43;6.53;;;11.70;99.90;;;;;;5105573;28;20196;-74
2021/10/03 01:01:01;;;;;;;7.73;5.93;;;11.70;99.90;;;;;;5108655;28;20567;-74
2021/10/03 01:03:28;;;;;;;8.73;5.93;;;11.70;99.90;;;;;;5099453;28;20228;-74
2021/10/03 01:05:55;;;;;;;7.57;5.13;;;11.70;99.90;;;;;;5108283;28;20203;-73
2021/10/03 01:08:22;;;;;;;6.80;5.10;;;11.70;99.90;;;;;;5100065;28;20209;-74
2021/10/03 01:10:49;;;;;;;5.60;4.67;;;11.70;99.90;;;;;;5111545;27;20184;-74
2021/10/03 01:13:16;;;;;;;4.77;4.10;;;11.70;99.90;;;;;;5102999;28;20190;-74
2021/10/03 01:15:46;;;;;;;6.17;4.63;;;11.70;99.90;;;;;;5103900;28;20196;-74
2021/10/03 01:18:15;;;;;;;6.03;4.40;;;11.70;99.90;;;;;;5106327;28;20298;-74
2021/10/03 01:20:43;;;;;;;4.17;3.77;;;11.80;99.90;;;;;;5108484;28;20524;-74
2021/10/03 01:23:11;;;;;;;5.33;4.30;;;11.80;99.90;;;;;;5108340;28;20200;-74
2021/10/03 01:25:40;;;;;;;4.93;3.80;;;11.70;99.90;;;;;;5103764;28;20219;-74
2021/10/03 01:28:08;;;;;;;5.43;4.40;;;11.80;99.90;;;;;;5108699;27;20302;-74
2021/10/03 01:30:37;;;;;;;6.17;4.77;;;11.70;99.90;;;;;;5106758;27;20208;-74
2021/10/03 01:33:05;;;;;;;4.43;4.03;;;11.80;99.90;;;;;;5107850;27;20203;-74
2021/10/03 01:35:32;;;;;;;6.83;5.00;;;11.80;99.90;;;;;;5108224;28;20235;-74
2021/10/03 01:37:59;;;;;;;6.20;5.10;;;11.70;99.90;;;;;;5110804;27;20206;-74
2021/10/03 01:40:29;;;;;;;6.43;4.90;;;11.80;99.90;;;;;;5107429;28;20211;-74
2021/10/03 01:42:57;;;;;;;5.47;4.70;;;11.70;99.90;;;;;;5100282;28;20214;-74
2021/10/03 01:45:25;;;;;;;5.43;4.70;;;11.70;99.90;;;;;;5108025;27;20586;-74
2021/10/03 01:48:13;;;;;;;5.60;4.40;;;11.70;99.90;;;;;;5104550;28;20207;-74
2021/10/03 01:50:44;;;;;;;6.57;5.03;;;11.70;99.90;;;;;;5099027;28;20204;-74
2021/10/03 01:53:12;;;;;;;6.17;4.53;;;11.70;99.90;;;;;;5108241;28;20199;-74
2021/10/03 01:55:43;;;;;;;7.27;5.47;;;11.60;99.90;;;;;;5106960;28;20196;-74
2021/10/03 01:58:11;;;;;;;6.13;5.03;;;11.60;99.90;;;;;;5106753;27;20204;-74
2021/10/03 02:00:39;;;;;;;6.10;5.30;;;11.60;99.90;;;;;;5110665;27;20199;-75
2021/10/03 02:03:09;;;;;;;6.53;5.20;;;11.60;99.90;;;;;;5101531;28;20764;-74
2021/10/03 02:05:38;;;;;;;6.33;5.00;;;11.60;99.90;;;;;;5110058;27;20226;-75
2021/10/03 02:08:06;;;;;;;7.27;5.87;;;11.50;99.90;;;;;;5099691;27;20196;-75
2021/10/03 02:10:33;;;;;;;6.57;5.43;;;11.50;99.90;;;;;;5107015;28;20329;-74
2021/10/03 02:13:01;;;;;;;8.97;5.10;;;11.50;99.90;;;;;;5107784;28;20226;-74
2021/10/03 02:15:29;;;;;;;14.20;5.50;;;11.50;99.90;;;;;;5105591;28;20206;-74
2021/10/03 02:17:56;;;;;;;5.10;4.47;;;11.50;99.90;;;;;;5107124;28;20191;-74
2021/10/03 02:20:23;;;;;;;5.93;4.60;;;11.50;99.90;;;;;;5108514;27;20211;-74
2021/10/03 02:22:51;;;;;;;5.10;4.10;;;11.50;99.90;;;;;;5108495;28;20196;-74
2021/10/03 02:25:18;;;;;;;7.10;5.17;;;11.50;99.90;;;;;;5106233;28;20353;-74
2021/10/03 02:27:45;;;;;;;5.03;4.53;;;11.50;99.90;;;;;;5105782;28;20203;-74
2021/10/03 02:30:14;;;;;;;7.03;5.10;;;11.50;99.90;;;;;;5104739;28;20210;-74
2021/10/03 02:32:41;;;;;;;5.40;4.73;;;11.50;99.90;;;;;;5108241;28;20203;-74
2021/10/03 02:35:11;;;;;;;6.07;5.03;;;11.50;99.90;;;;;;5107125;28;20225;-75
2021/10/03 02:37:39;;;;;;;5.33;4.83;;;11.50;99.90;;;;;;5106921;28;20256;-75
2021/10/03 02:40:09;;;;;;;6.50;5.23;;;10.90;99.90;;;;;;5103957;28;20755;-75
2021/10/03 02:42:37;;;;;;;6.13;4.80;;;11.40;99.90;;;;;;5102137;28;20245;-75
2021/10/03 02:45:06;;;;;;;9.53;6.27;;;11.40;99.90;;;;;;5106041;28;20220;-75
2021/10/03 02:47:34;;;;;;;9.10;6.90;;;11.40;99.90;;;;;;5106498;28;21014;-74
2021/10/03 02:50:02;;;;;;;8.17;5.73;;;11.40;99.90;;;;;;5107301;28;20557;-75
2021/10/03 02:52:29;;;;;;;8.63;6.40;;;11.40;99.90;;;;;;5107313;28;20198;-74
2021/10/03 02:54:55;;;;;;;7.07;5.83;;;11.40;99.90;;;;;;5106682;28;20239;-75
2021/10/03 02:57:23;;;;;;;9.93;7.20;;;11.40;99.90;;;;;;5109544;28;20678;-74
2021/10/03 02:59:50;;;;;;;10.40;7.37;;;11.40;99.90;;;;;;5105875;28;20299;-74
2021/10/03 03:02:17;;;;;;;9.17;7.23;;;11.40;99.90;;;;;;5106453;28;20638;-74
2021/10/03 03:04:45;;;;;;;12.87;8.63;;;11.40;99.90;;;;;;5107655;28;20757;-75
2021/10/03 03:07:12;;;;;;;11.27;7.83;;;11.40;99.90;;;;;;5098650;28;20914;-75
2021/10/03 03:09:40;;;;;;;15.10;9.43;;;11.40;99.90;;;;;;5102234;28;20263;-74
2021/10/03 03:12:07;;;;;;;12.03;8.73;;;11.40;99.90;;;;;;5110141;28;20670;-74
2021/10/03 03:14:34;;;;;;;14.33;9.23;;;11.40;99.90;;;;;;5096386;28;20568;-74
2021/10/03 03:17:14;;;;;;;16.37;10.80;;;11.40;99.90;;;;;;5100395;28;20669;-75
2021/10/03 03:19:41;;;;;;;19.73;12.00;;;11.40;99.90;;;;;;5100186;28;20704;-74
2021/10/03 03:22:10;;;;;;;15.23;10.30;;;11.30;99.90;;;;;;5106599;28;20188;-74
2021/10/03 03:24:37;;;;;;;13.17;9.50;;;11.30;99.90;;;;;;5106713;28;20314;-74
2021/10/03 03:27:05;;;;;;;13.43;9.20;;;11.30;99.90;;;;;;5106662;28;20191;-73
2021/10/03 03:29:32;;;;;;;14.80;8.83;;;11.30;99.90;;;;;;5107062;28;20199;-74
2021/10/03 03:32:00;;;;;;;11.53;8.57;;;11.30;99.90;;;;;;5106735;28;20208;-74
2021/10/03 03:34:27;;;;;;;16.53;10.13;;;11.40;99.90;;;;;;5107890;28;20285;-74
2021/10/03 03:36:54;;;;;;;15.07;9.67;;;11.40;99.90;;;;;;5109498;27;20202;-74
2021/10/03 03:39:23;;;;;;;19.00;11.37;;;11.30;99.90;;;;;;5111592;27;20205;-75
2021/10/03 03:41:50;;;;;;;12.43;8.63;;;11.40;99.90;;;;;;5105187;27;20556;-75
2021/10/03 03:44:17;;;;;;;14.37;9.03;;;11.40;99.90;;;;;;5112820;27;20788;-75
2021/10/03 03:46:44;;;;;;;10.57;8.20;;;11.40;99.90;;;;;;5115952;27;20759;-75
2021/10/03 03:49:11;;;;;;;11.97;8.50;;;11.40;99.90;;;;;;5113539;27;20210;-75
2021/10/03 03:51:38;;;;;;;12.83;8.20;;;11.40;99.90;;;;;;5105960;28;20294;-75
2021/10/03 03:54:05;;;;;;;11.60;7.77;;;11.40;99.90;;;;;;5115045;27;20248;-75
2021/10/03 03:56:34;;;;;;;10.97;7.60;;;11.40;99.90;;;;;;5109168;28;20656;-75
2021/10/03 03:59:01;;;;;;;10.90;7.37;;;11.50;99.90;;;;;;5110366;27;20196;-75
2021/10/03 04:01:28;;;;;;;11.47;7.40;;;11.50;99.90;;;;;;5111028;28;20198;-75
2021/10/03 04:03:55;;;;;;;13.73;9.00;;;11.50;99.90;;;;;;5109248;28;20240;-75
2021/10/03 04:06:22;;;;;;;15.57;10.40;;;11.50;99.90;;;;;;5107787;28;20211;-75
2021/10/03 04:08:51;;;;;;;15.30;10.77;;;11.50;99.90;;;;;;5112465;27;20629;-75
2021/10/03 04:11:18;;;;;;;13.67;8.87;;;11.50;99.90;;;;;;5109693;27;20208;-75
2021/10/03 04:13:46;;;;;;;11.50;8.03;;;11.50;99.90;;;;;;5110707;27;20290;-75
2021/10/03 04:16:14;;;;;;;11.43;8.17;;;11.50;99.90;;;;;;5109156;27;20730;-75
2021/10/03 04:18:41;;;;;;;12.33;8.20;;;11.60;99.90;;;;;;5111992;27;20219;-75
2021/10/03 04:21:08;;;;;;;16.43;10.60;;;11.60;99.90;;;;;;5109775;27;20688;-75
2021/10/03 04:23:35;;;;;;;12.80;9.37;;;11.60;99.90;;;;;;5099709;28;20199;-75
2021/10/03 04:26:02;;;;;;;13.73;9.33;;;11.60;99.90;;;;;;5114721;27;20219;-75
2021/10/03 04:28:29;;;;;;;13.80;9.23;;;11.60;99.90;;;;;;5112430;27;20683;-75
2021/10/03 04:30:58;;;;;;;12.70;9.10;;;11.60;99.90;;;;;;5105090;27;20202;-75
2021/10/03 04:33:25;;;;;;;14.70;9.53;;;11.60;99.90;;;;;;5105184;28;20204;-75
2021/10/03 04:35:52;;;;;;;13.40;9.57;;;11.60;99.90;;;;;;5109814;28;20197;-75
2021/10/03 04:38:19;;;;;;;15.10;9.80;;;11.60;99.90;;;;;;5108997;28;20579;-75
2021/10/03 04:40:46;;;;;;;13.70;10.10;;;11.60;99.90;;;;;;5104204;27;20195;-75
2021/10/03 04:43:13;;;;;;;19.10;10.90;;;11.60;99.90;;;;;;5101896;28;20615;-75
2021/10/03 04:45:42;;;;;;;16.43;10.80;;;11.60;99.90;;;;;;5110653;27;20223;-75
2021/10/03 04:48:10;;;;;;;17.47;11.40;;;11.60;99.90;;;;;;5109319;27;20633;-75
2021/10/03 04:50:37;;;;;;;15.00;10.07;;;11.60;99.90;;;;;;5110999;27;20227;-75
2021/10/03 04:53:04;;;;;;;10.43;8.10;;;11.60;99.90;;;;;;5111425;27;20295;-75
2021/10/03 04:55:31;;;;;;;9.47;7.50;;;11.60;99.90;;;;;;5109650;28;20521;-75
2021/10/03 04:57:58;;;;;;;12.23;8.77;;;11.60;99.90;;;;;;5108021;28;20210;-75
2021/10/03 05:00:25;;;;;;;13.23;9.77;;;11.60;99.90;;;;;;5106318;28;20215;-75
2021/10/03 05:02:53;;;;;;;13.80;10.07;;;11.70;99.90;;;;;;5109003;27;20233;-75
2021/10/03 05:05:22;;;;;;;14.53;10.00;;;11.70;99.90;;;;;;5111252;27;20310;-75
2021/10/03 05:07:49;;;;;;;12.10;8.60;;;11.70;99.90;;;;;;5112123;27;20198;-75
2021/10/03 05:10:16;;;;;;;10.90;8.00;;;11.70;99.90;;;;;;5107876;28;20188;-75
2021/10/03 05:12:43;;;;;;;12.73;8.73;;;11.70;99.90;;;;;;5108261;28;20217;-75
2021/10/03 05:15:10;;;;;;;15.43;9.27;;;11.80;99.90;;;;;;5104459;28;20294;-75
2021/10/03 05:17:37;;;;;;;14.13;10.00;;;11.70;99.90;;;;;;5107721;28;20792;-75
2021/10/03 05:20:05;;;;;;;12.60;8.57;;;11.80;99.90;;;;;;5108246;28;20199;-75
2021/10/03 05:22:34;;;;;;;17.00;10.00;;;11.80;99.90;;;;;;5110191;27;20559;-75
2021/10/03 05:25:01;;;;;;;12.80;9.43;;;11.80;99.90;;;;;;5108779;27;20215;-75
2021/10/03 05:27:29;;;;;;;15.33;9.90;;;11.80;99.90;;;;;;5110722;27;20696;-75
2021/10/03 05:29:56;;;;;;;13.50;8.67;;;11.80;99.90;;;;;;5104816;28;20202;-75
2021/10/03 05:32:23;;;;;;;12.83;8.67;;;11.80;99.90;;;;;;5106346;28;20550;-75
2021/10/03 05:34:50;;;;;;;15.33;10.43;;;11.90;99.90;;;;;;5108323;28;20565;-75
2021/10/03 05:37:17;;;;;;;14.27;9.73;;;11.90;99.90;;;;;;5108015;28;20654;-75
2021/10/03 05:39:45;;;;;;;15.20;9.77;;;12.00;99.90;;;;;;5107145;28;20714;-75
2021/10/03 05:42:12;;;;;;;12.37;9.03;;;12.00;99.90;;;;;;5093612;28;20295;-75
2021/10/03 05:44:39;;;;;;;14.33;10.00;;;12.10;99.90;;;;;;5102464;28;20193;-75
2021/10/03 05:47:06;;;;;;;13.43;8.83;;;12.20;99.90;;;;;;5108817;28;20751;-75
2021/10/03 05:49:33;;;;;;;15.37;9.63;;;12.30;99.90;;;;;;5101033;28;20315;-75
2021/10/03 05:52:00;;;;;;;18.63;11.30;;;12.40;99.90;;;;;;5111489;27;20266;-74
2021/10/03 05:54:27;;;;;;;15.97;10.37;;;12.50;99.90;;;;;;5110004;27;20222;-74
2021/10/03 05:56:55;;;;;;;13.80;8.73;;;12.60;99.90;;;;;;5092610;28;20202;-75
2021/10/03 05:59:22;;;;;;;10.43;7.73;;;12.70;99.90;;;;;;5105645;27;20208;-75
2021/10/03 06:01:49;;;;;;;15.93;10.57;;;12.80;99.90;;;;;;5113460;27;20588;-75
2021/10/03 06:04:16;;;;;;;15.27;10.33;;;12.90;99.90;;;;;;5104290;28;20671;-75
2021/10/03 06:06:43;;;;;;;15.10;10.50;;;12.90;99.90;;;;;;5103522;28;20746;-75
2021/10/03 06:09:10;;;;;;;16.20;10.73;;;13.00;99.90;;;;;;5101970;28;20204;-74
2021/10/03 06:11:37;;;;;;;17.07;10.67;;;13.10;99.90;;;;;;5108526;28;20192;-75
2021/10/03 06:14:06;;;;;;;14.10;9.87;;;13.10;99.90;;;;;;5105462;28;20597;-75
2021/10/03 06:16:33;;;;;;;14.13;9.73;;;13.10;99.90;;;;;;5107947;28;20640;-75
2021/10/03 06:19:00;;;;;;;16.90;9.60;;;13.10;99.90;;;;;;5106296;28;20196;-75
2021/10/03 06:21:27;;;;;;;13.97;9.83;;;13.20;99.90;;;;;;5106618;28;20215;-75
2021/10/03 06:23:54;;;;;;;13.70;9.33;;;13.20;99.90;;;;;;5098559;28;20195;-75
2021/10/03 06:26:21;;;;;;;15.07;9.67;;;13.30;99.90;;;;;;5107472;28;20223;-74
2021/10/03 06:28:48;;;;;;;13.47;9.37;;;13.30;99.90;;;;;;5107988;27;20618;-74
2021/10/03 06:31:16;;;;;;;12.00;8.90;;;13.40;99.90;;;;;;5106056;28;20192;-75
2021/10/03 06:33:44;;;;;;;12.63;8.97;;;13.60;99.90;;;;;;5107887;28;20476;-75
2021/10/03 06:36:12;;;;;;;15.10;9.13;;;13.70;99.90;;;;;;5102886;28;20198;-75
2021/10/03 06:38:39;;;;;;;11.60;8.63;;;14.00;99.90;;;;;;5101839;28;20325;-74
2021/10/03 06:41:06;;;;;;;12.53;8.77;;;14.30;99.90;;;;;;5102722;28;20199;-74
2021/10/03 06:43:35;;;;;;;10.70;8.00;;;14.80;99.90;;;;;;5106977;28;20320;-74
2021/10/03 06:46:03;;;;;;;10.57;8.07;;;15.20;99.90;;;;;;5108535;28;20700;-74
2021/10/03 06:48:31;;;;;;;14.17;8.50;;;15.60;99.90;;;;;;5105840;28;20235;-75
2021/10/03 06:50:58;;;;;;;14.47;7.77;;;15.90;99.90;;;;;;5109327;28;20235;-74
2021/10/03 06:53:25;;;;;;;11.13;7.73;;;16.30;99.90;;;;;;5106811;28;20575;-74
2021/10/03 06:55:53;;;;;;;11.17;7.47;;;16.70;99.90;;;;;;5108088;28;20194;-74
2021/10/03 06:58:20;;;;;;;9.43;7.30;;;17.20;99.90;;;;;;5105879;28;20663;-74
2021/10/03 07:00:48;;;;;;;9.43;7.50;;;17.80;99.90;;;;;;5105001;28;20196;-75
2021/10/03 07:03:15;;;;;;;7.87;6.37;;;18.60;99.90;;;;;;5107127;28;20227;-76
2021/10/03 07:05:43;;;;;;;10.27;7.40;;;19.10;99.90;;;;;;5106957;28;20323;-74
2021/10/03 07:08:12;;;;;;;11.47;7.50;;;19.80;99.90;;;;;;5104424;28;20533;-74
2021/10/03 07:10:39;;;;;;;8.10;5.95;;;20.50;99.90;;;;;;5107899;28;20205;-75
2021/10/03 07:13:06;;;;;;;10.75;7.78;;;21.00;99.90;;;;;;5112009;28;20187;-74
2021/10/03 07:15:33;;;;;;;13.90;7.95;;;21.10;98.90;;;;;;5109415;28;20357;-75
2021/10/03 07:18:00;;;;;;;7.63;6.28;;;21.10;97.80;;;;;;5112230;28;20682;-75
2021/10/03 07:20:27;;;;;;;8.38;5.93;;;21.50;97.80;;;;;;5110391;27;20218;-75
2021/10/03 07:22:56;;;;;;;12.75;6.93;;;21.70;96.80;;;;;;5108150;28;20655;-75
2021/10/03 07:25:24;;;;;;;8.60;6.45;;;21.50;96.00;;;;;;5106083;28;20319;-75
2021/10/03 07:27:51;;;;;;;8.18;6.05;;;21.30;95.80;;;;;;5107416;28;20207;-75
2021/10/03 07:30:18;;;;;;;7.88;6.50;;;21.50;95.40;;;;;;5108984;27;20210;-75
2021/10/03 07:32:45;;;;;;;7.03;5.90;;;22.20;93.60;;;;;;5115739;27;20267;-75
2021/10/03 07:35:12;;;;;;;9.23;6.13;;;22.90;92.40;;;;;;5104912;28;20335;-74
2021/10/03 07:37:39;;;;;;;7.85;5.70;;;23.50;89.60;;;;;;5116182;27;20667;-75
2021/10/03 07:40:09;;;;;;;7.53;5.95;;;24.00;88.40;;;;;;5109476;28;20646;-75
2021/10/03 07:42:37;;;;;;;5.80;4.90;;;24.30;84.80;;;;;;5097229;28;20202;-75
2021/10/03 07:45:04;;;;;;;6.85;5.50;;;24.50;84.00;;;;;;5110237;28;20283;-75
2021/10/03 07:47:31;;;;;;;5.32;4.82;;;24.60;82.00;;;;;;5107932;28;20207;-75
2021/10/03 07:49:58;;;;;;;7.03;5.50;;;24.60;81.00;;;;;;5107658;28;20204;-75
2021/10/03 07:52:25;;;;;;;7.88;6.30;;;24.60;79.70;;;;;;5109161;28;20207;-75
2021/10/03 07:54:53;;;;;;;6.97;6.00;;;24.30;77.30;;;;;;5111931;27;20219;-74
2021/10/03 07:57:21;;;;;;;7.25;5.18;;;23.90;76.60;;;;;;5109388;28;20192;-74
2021/10/03 07:59:48;;;;;;;10.20;5.28;;;23.70;77.80;;;;;;5109654;28;20196;-75
2021/10/03 08:02:15;;;;;;;9.35;5.63;;;23.90;78.10;;;;;;5108862;28;20239;-74
2021/10/03 08:04:42;;;;;;;7.22;5.40;;;24.10;77.30;;;;;;5111106;28;20184;-75
2021/10/03 08:07:09;;;;;;;7.93;4.95;;;24.40;76.20;;;;;;5109223;27;20222;-75
2021/10/03 08:09:37;;;;;;;7.53;5.78;;;24.80;75.40;;;;;;5109642;28;20184;-75
2021/10/03 08:12:05;;;;;;;6.60;5.13;;;25.30;73.10;;;;;;5109832;27;20229;-75
2021/10/03 08:14:33;;;;;;;8.82;5.60;;;25.40;70.70;;;;;;5106238;28;20199;-76
2021/10/03 08:17:00;;;;;;;7.22;5.65;;;25.80;68.50;;;;;;5110513;28;20192;-74
2021/10/03 08:19:29;;;;;;;9.32;5.97;;;26.30;66.30;;;;;;5109428;28;20271;-75
2021/10/03 08:21:56;;;;;;;8.25;5.63;;;26.80;64.80;;;;;;5104746;27;20507;-75
2021/10/03 08:24:23;;;;;;;5.43;4.88;;;27.40;61.60;;;;;;5107988;28;20276;-76
2021/10/03 08:26:50;;;;;;;5.70;4.70;;;27.90;60.30;;;;;;5098121;27;20602;-75
2021/10/03 08:29:18;;;;;;;7.78;5.47;;;27.80;59.50;;;;;;5110928;27;20215;-74
2021/10/03 08:31:52;;;;;;;5.07;4.50;;;27.40;58.80;;;;;;5110177;27;20711;-75
2021/10/03 08:34:21;;;;;;;7.28;5.40;;;26.60;59.60;;;;;;5109412;28;20199;-75
2021/10/03 08:36:50;;;;;;;5.35;4.80;;;25.90;60.10;;;;;;5111221;28;20202;-74
2021/10/03 08:39:17;;;;;;;6.00;5.20;;;25.40;61.30;;;;;;5110351;27;20256;-75
2021/10/03 08:41:46;;;;;;;7.05;5.78;;;25.20;61.70;;;;;;5105636;28;20282;-75
2021/10/03 08:44:13;;;;;;;7.68;5.70;;;25.00;61.70;;;;;;5108659;28;20203;-75
2021/10/03 08:46:42;;;;;;;5.80;5.10;;;24.70;63.00;;;;;;5111395;27;20234;-75
2021/10/03 08:49:11;;;;;;;5.25;4.75;;;24.50;63.20;;;;;;5108821;28;20220;-75
2021/10/03 08:51:38;;;;;;;5.60;4.20;;;24.40;63.90;;;;;;5111601;27;20566;-75
2021/10/03 08:54:05;;;;;;;7.15;5.05;;;25.10;63.50;;;;;;5112947;27;20563;-75
2021/10/03 08:56:32;;;;;;;5.28;4.78;;;26.20;61.20;;;;;;5109847;27;20524;-76
2021/10/03 08:59:02;;;;;;;5.15;4.40;;;27.10;59.30;;;;;;5112125;27;20243;-76
2021/10/03 09:01:48;;;;;;;5.78;4.53;;;28.00;57.00;;;;;;5106940;28;20200;-75
2021/10/03 09:04:30;;;;;;;5.70;4.25;;;29.00;56.10;;;;;;5096947;28;20199;-75
2021/10/03 09:07:03;;;;;;;5.10;4.60;;;29.80;54.20;;;;;;5106812;27;20246;-75
2021/10/03 09:09:48;;;;;;;6.15;4.75;;;30.30;51.30;;;;;;5103257;27;20200;-76
2021/10/03 09:12:27;;;;;;;5.25;4.60;;;30.40;49.80;;;;;;5105875;28;20203;-75
2021/10/03 09:14:54;;;;;;;5.50;4.80;;;30.30;49.10;;;;;;5100296;28;20191;-75
2021/10/03 09:17:22;;;;;;;6.20;4.75;;;30.40;48.50;;;;;;5107390;27;20184;-75
2021/10/03 09:20:15;;;;;;;5.50;4.80;;;30.40;48.00;;;;;;5106794;27;20191;-75
2021/10/03 09:23:08;;;;;;;4.90;4.45;;;30.20;47.50;;;;;;5099542;28;20287;-75
2021/10/03 09:25:41;;;;;;;5.43;4.93;;;30.00;47.20;;;;;;5102524;27;20291;-75
2021/10/03 09:28:13;;;;;;;7.53;4.25;;;30.00;46.70;;;;;;5104961;27;20213;-74
2021/10/03 09:30:59;;;;;;;6.82;4.68;;;30.00;46.40;;;;;;5103409;27;20278;-74
2021/10/03 09:33:37;;;;;;;5.25;4.53;;;30.10;46.10;;;;;;5096526;28;20652;-75
2021/10/03 09:36:06;;;;;;;5.13;4.15;;;30.60;45.70;;;;;;5100158;28;20195;-74
2021/10/03 09:38:43;;;;;;;7.28;4.60;;;31.20;44.90;;;;;;5110038;27;20191;-74
2021/10/03 09:41:11;;;;;;;7.47;4.13;;;31.40;43.80;;;;;;5099930;28;20204;-74
2021/10/03 09:43:40;;;;;;;4.65;4.20;;;31.60;43.60;;;;;;5105726;28;20274;-74
2021/10/03 09:46:07;;;;;;;5.88;5.28;;;32.00;43.60;;;;;;5105749;28;20204;-74
2021/10/03 09:48:46;;;;;;;5.22;4.68;;;32.50;41.80;;;;;;5100127;28;20204;-74
2021/10/03 09:51:16;;;;;;;5.45;4.65;;;32.60;41.10;;;;;;5112241;27;20631;-74
2021/10/03 09:53:44;;;;;;;5.22;4.50;;;32.50;40.40;;;;;;5106626;27;20196;-74
2021/10/03 09:56:12;;;;;;;4.75;4.00;;;32.50;40.00;;;;;;5113225;27;20648;-74
2021/10/03 09:58:41;;;;;;;4.40;4.00;;;32.60;40.40;;;;;;5105051;28;20188;-73
2021/10/03 10:01:08;;;;;;;4.60;4.20;;;33.00;40.60;;;;;;5105936;28;20208;-73
2021/10/03 10:03:37;;;;;;;4.93;4.47;;;33.50;40.30;;;;;;5106891;28;20228;-74
2021/10/03 10:06:05;;;;;;;5.70;4.38;;;33.60;39.10;;;;;;5110563;27;20218;-73
2021/10/03 10:08:34;;;;;;;7.15;5.55;;;33.60;38.20;;;;;;5109119;27;20195;-73
2021/10/03 10:11:09;;;;;;;5.07;4.63;;;33.50;37.80;;;;;;5109252;27;20275;-73
2021/10/03 10:13:37;;;;;;;7.05;4.80;;;33.40;38.30;;;;;;5109614;27;20666;-74
2021/10/03 10:16:27;;;;;;;11.45;4.80;;;33.40;38.00;;;;;;5110520;27;20540;-74
2021/10/03 10:19:27;;;;;;;6.35;4.90;;;33.60;37.30;;;;;;5109657;27;20192;-75
2021/10/03 10:22:29;;;;;;;5.47;4.70;;;33.80;37.20;;;;;;5107686;28;20195;-75
2021/10/03 10:25:02;;;;;;;5.07;4.22;;;34.00;36.60;;;;;;5107959;28;20401;-72
2021/10/03 10:28:02;;;;;;;4.78;4.38;;;33.70;35.80;;;;;;5108932;28;20234;-74
2021/10/03 10:30:29;;;;;;;6.47;4.50;;;33.40;36.40;;;;;;5094122;28;20652;-73
2021/10/03 10:33:11;;;;;;;7.68;4.60;;;33.40;36.10;;;;;;5112344;27;20203;-74
2021/10/03 10:35:41;;;;;;;6.15;5.13;;;33.50;35.90;;;;;;5108145;28;20203;-75
2021/10/03 10:38:23;;;;;;;6.82;4.85;;;33.70;35.50;;;;;;5108924;28;21220;-74
2021/10/03 10:40:52;;;;;;;5.80;4.20;;;34.00;36.10;;;;;;5101662;28;20203;-74
2021/10/03 10:43:47;;;;;;;6.68;4.97;;;34.40;35.30;;;;;;5106381;28;20226;-74
2021/10/03 10:46:46;;;;;;;8.38;5.30;;;34.40;34.50;;;;;;5110640;28;20671;-75
2021/10/03 10:49:35;;;;;;;7.47;5.32;;;34.30;34.20;;;;;;5112632;28;20570;-74
2021/10/03 10:52:29;;;;;;;7.75;4.97;;;34.00;34.10;;;;;;5111344;28;20291;-75
2021/10/03 10:55:31;;;;;;;5.60;5.05;;;33.50;34.10;;;;;;5115685;27;20202;-74
2021/10/03 10:58:22;;;;;;;9.80;4.80;;;33.20;34.70;;;;;;5107967;28;20263;-75
2021/10/03 11:01:12;;;;;;;5.35;4.80;;;32.80;34.60;;;;;;5110330;28;20204;-74
2021/10/03 11:04:07;;;;;;;5.53;5.03;;;32.60;35.10;;;;;;5105165;28;20709;-75
2021/10/03 11:07:05;;;;;;;5.20;4.68;;;32.50;34.70;;;;;;5102495;27;20208;-75
2021/10/03 11:10:00;;;;;;;4.78;4.30;;;32.30;35.00;;;;;;5109927;28;20644;-75
2021/10/03 11:12:32;;;;;;;5.88;4.78;;;32.10;35.20;;;;;;5112354;27;20203;-75
2021/10/03 11:15:28;;;;;;;5.13;4.68;;;31.60;35.20;;;;;;5108817;28;20674;-74
2021/10/03 11:18:09;;;;;;;5.47;4.43;;;30.90;35.90;;;;;;5118706;27;20212;-74
2021/10/03 11:20:50;;;;;;;5.80;5.00;;;30.10;36.80;;;;;;5103839;27;20228;-75
2021/10/03 11:23:22;;;;;;;5.72;4.68;;;29.80;37.60;;;;;;5099403;27;20269;-75
2021/10/03 11:26:00;;;;;;;5.05;4.10;;;29.80;37.60;;;;;;5110283;28;20226;-75
2021/10/03 11:28:49;;;;;;;4.80;4.47;;;30.10;37.50;;;;;;5109618;28;20219;-73
2021/10/03 11:31:36;;;;;;;7.10;4.13;;;30.50;36.90;;;;;;5105519;28;20668;-75
2021/10/03 11:34:04;;;;;;;7.97;4.68;;;30.80;37.00;;;;;;5099000;27;20203;-74
2021/10/03 11:36:32;;;;;;;4.25;3.95;;;30.80;36.40;;;;;;5107138;28;20203;-74
2021/10/03 11:39:04;;;;;;;5.30;4.80;;;30.90;36.50;;;;;;5107626;27;20242;-75
2021/10/03 11:41:31;;;;;;;5.40;4.90;;;30.70;36.30;;;;;;5107503;28;20276;-75
2021/10/03 11:43:58;;;;;;;6.18;5.13;;;30.30;36.20;;;;;;5108204;27;20218;-75
2021/10/03 11:46:25;;;;;;;7.45;5.00;;;29.60;36.80;;;;;;5105100;27;20199;-76
2021/10/03 11:48:54;;;;;;;5.55;4.72;;;28.80;37.70;;;;;;5102115;28;20278;-74
2021/10/03 11:51:21;;;;;;;6.03;4.45;;;28.10;38.70;;;;;;5109343;28;20278;-74
2021/10/03 11:53:49;;;;;;;7.07;5.15;;;27.50;39.40;;;;;;5113990;27;20581;-75
2021/10/03 11:56:18;;;;;;;4.82;4.32;;;27.10;40.20;;;;;;5108234;27;20286;-73
2021/10/03 11:58:48;;;;;;;5.57;4.95;;;26.70;40.90;;;;;;5105593;27;20690;-73
2021/10/03 12:01:15;;;;;;;8.25;5.13;;;26.40;41.60;;;;;;5120888;27;20199;-74
2021/10/03 12:03:49;;;;;;;6.53;5.00;;;26.10;42.00;;;;;;5104552;28;20315;-74
2021/10/03 12:06:32;;;;;;;5.30;4.63;;;25.80;42.50;;;;;;5107788;28;20207;-74
2021/10/03 12:09:09;;;;;;;5.88;4.30;;;25.70;43.20;;;;;;5105847;27;20224;-74
2021/10/03 12:11:47;;;;;;;6.03;4.60;;;25.30;43.60;;;;;;5102481;28;20506;-74
2021/10/03 12:14:14;;;;;;;5.63;4.18;;;25.10;43.90;;;;;;5100367;27;20207;-74
2021/10/03 12:16:50;;;;;;;5.05;4.13;;;24.80;44.30;;;;;;5109054;27;20568;-74
2021/10/03 12:19:17;;;;;;;6.25;4.70;;;24.60;44.60;;;;;;5106197;27;20235;-74
2021/10/03 12:21:46;;;;;;;7.10;5.25;;;24.40;45.10;;;;;;5104619;27;20200;-74
2021/10/03 12:24:13;;;;;;;5.30;4.70;;;24.20;45.50;;;;;;5105401;28;20350;-74
2021/10/03 12:26:42;;;;;;;4.97;3.97;;;24.00;45.90;;;;;;5100183;27;20239;-74
2021/10/03 12:29:17;;;;;;;6.25;4.25;;;23.90;46.20;;;;;;5100815;28;20201;-74
2021/10/03 12:31:48;;;;;;;6.60;4.20;;;23.80;46.50;;;;;;5106606;27;20199;-75
2021/10/03 12:34:41;;;;;;;8.00;4.88;;;23.70;46.90;;;;;;5105307;27;20192;-75
2021/10/03 12:37:11;;;;;;;6.07;4.30;;;23.50;46.90;;;;;;5105762;28;20307;-78
2021/10/03 12:39:40;;;;;;;5.50;4.47;;;23.40;47.20;;;;;;5104512;27;20443;-75
2021/10/03 12:42:11;;;;;;;4.93;4.15;;;23.40;47.50;;;;;;5104889;28;20227;-74
2021/10/03 12:44:40;;;;;;;4.93;4.22;;;23.40;47.60;;;;;;5102948;28;20277;-74
2021/10/03 12:47:08;;;;;;;6.65;5.07;;;23.30;47.90;;;;;;5100025;28;20989;-73
2021/10/03 12:49:35;;;;;;;5.65;4.40;;;23.40;48.40;;;;;;5101597;28;20207;-74
2021/10/03 12:52:04;;;;;;;6.70;4.72;;;23.30;48.40;;;;;;5107743;27;20192;-74
2021/10/03 12:54:33;;;;;;;4.93;4.40;;;23.20;48.50;;;;;;5101851;28;20434;-75
2021/10/03 12:57:01;;;;;;;15.60;5.28;;;23.20;48.80;;;;;;5109496;27;20921;-74
2021/10/03 12:59:29;;;;;;;7.43;4.78;;;23.10;48.70;;;;;;5111166;27;20200;-74